createdAt,value
2022-09-13T00:01:43.203Z,99.90
2022-09-13T00:04:13.961Z,99.90
2022-09-13T00:06:44.238Z,99.90
2022-09-13T00:09:14.535Z,99.80
2022-09-13T00:11:44.859Z,99.90
2022-09-13T00:14:15.579Z,99.90
2022-09-13T00:16:46.497Z,99.90
2022-09-13T00:19:17.145Z,99.80
2022-09-13T00:21:47.779Z,99.90
2022-09-13T00:24:18.173Z,99.90
2022-09-13T00:26:48.452Z,99.90
2022-09-13T00:29:18.739Z,99.90
2022-09-13T00:31:49.341Z,99.90
2022-09-13T00:34:19.698Z,99.90
2022-09-13T00:36:49.923Z,99.90
2022-09-13T00:39:20.287Z,99.90
2022-09-13T00:41:50.569Z,99.90
2022-09-13T00:44:51.881Z,99.90
2022-09-13T00:47:29.147Z,99.90
2022-09-13T00:50:22.227Z,99.90
2022-09-13T00:53:16.867Z,99.90
2022-09-13T00:55:59.636Z,99.90
2022-09-13T00:58:37.497Z,99.60
2022-09-13T01:01:08.960Z,99.70
2022-09-13T01:03:40.595Z,99.90
2022-09-13T01:06:15.895Z,99.90
2022-09-13T01:08:52.102Z,99.90
2022-09-13T01:11:34.254Z,99.90
2022-09-13T01:14:05.587Z,99.90
2022-09-13T01:16:36.206Z,99.90
2022-09-13T01:19:07.187Z,99.90
2022-09-13T01:22:10.072Z,99.90
2022-09-13T01:25:05.721Z,99.80
2022-09-13T01:27:56.826Z,99.90
2022-09-13T01:30:33.461Z,99.80
2022-09-13T01:33:27.092Z,99.90
2022-09-13T01:36:20.134Z,99.90
2022-09-13T01:39:02.079Z,99.70
2022-09-13T01:42:11.373Z,99.50
2022-09-13T01:45:15.690Z,99.30
2022-09-13T01:48:11.079Z,99.50
2022-09-13T01:50:48.813Z,99.50
2022-09-13T01:53:39.066Z,99.30
2022-09-13T01:56:30.843Z,99.30
2022-09-13T01:59:13.107Z,99.30
2022-09-13T02:01:52.832Z,99.10
2022-09-13T02:04:29.854Z,99.10
2022-09-13T02:07:16.399Z,99.00
2022-09-13T02:09:53.706Z,99.00
2022-09-13T02:12:27.355Z,98.90
2022-09-13T02:15:14.100Z,98.80
2022-09-13T02:17:52.420Z,98.70
2022-09-13T02:20:30.568Z,98.80
2022-09-13T02:23:05.553Z,98.40
2022-09-13T02:25:38.700Z,98.60
2022-09-13T02:28:13.804Z,98.20
2022-09-13T02:30:50.773Z,97.90
2022-09-13T02:33:51.654Z,97.70
2022-09-13T02:36:31.969Z,97.80
2022-09-13T02:39:07.759Z,97.70
2022-09-13T02:41:58.962Z,97.40
2022-09-13T02:44:44.635Z,97.00
2022-09-13T02:47:45.115Z,96.90
2022-09-13T02:50:45.454Z,96.80
2022-09-13T02:53:43.260Z,96.90
2022-09-13T02:56:42.836Z,97.20
2022-09-13T02:59:25.046Z,96.60
2022-09-13T03:02:16.675Z,96.20
2022-09-13T03:04:47.131Z,96.80
2022-09-13T03:07:18.259Z,96.80
2022-09-13T03:09:58.463Z,95.90
2022-09-13T03:12:58.071Z,96.10
2022-09-13T03:15:57.981Z,95.60
2022-09-13T03:18:57.136Z,95.70
2022-09-13T03:21:56.079Z,95.30
2022-09-13T03:24:38.090Z,94.70
2022-09-13T03:27:31.983Z,95.00
2022-09-13T03:30:08.403Z,94.50
2022-09-13T03:33:05.633Z,94.50
2022-09-13T03:36:02.176Z,94.00
2022-09-13T03:38:42.288Z,95.10
2022-09-13T03:41:19.019Z,94.40
2022-09-13T03:43:56.517Z,94.60
2022-09-13T03:46:37.219Z,95.10
2022-09-13T03:49:14.896Z,94.70
2022-09-13T03:51:47.569Z,94.60
2022-09-13T03:54:23.001Z,93.70
2022-09-13T03:57:11.691Z,94.10
2022-09-13T03:59:47.003Z,93.90
2022-09-13T04:02:18.576Z,93.70
2022-09-13T04:04:52.071Z,93.50
2022-09-13T04:07:24.793Z,93.30
2022-09-13T04:09:54.771Z,93.80
2022-09-13T04:12:26.245Z,94.10
2022-09-13T04:14:56.111Z,93.90
2022-09-13T04:17:26.753Z,93.90
2022-09-13T04:19:56.560Z,93.50
2022-09-13T04:22:26.477Z,93.50
2022-09-13T04:25:00.209Z,92.90
2022-09-13T04:27:31.913Z,92.90
2022-09-13T04:30:01.788Z,92.70
2022-09-13T04:32:31.791Z,92.60
2022-09-13T04:35:01.756Z,93.10
2022-09-13T04:37:33.491Z,93.20
2022-09-13T04:40:04.934Z,93.50
2022-09-13T04:42:35.814Z,93.10
2022-09-13T04:45:07.336Z,92.80
2022-09-13T04:47:37.089Z,92.90
2022-09-13T04:50:08.858Z,92.80
2022-09-13T04:52:40.330Z,92.20
2022-09-13T04:55:10.602Z,92.30
2022-09-13T04:57:40.594Z,92.30
2022-09-13T05:00:12.047Z,91.90
2022-09-13T05:02:41.936Z,91.90
2022-09-13T05:05:12.488Z,91.80
2022-09-13T05:07:42.505Z,92.00
2022-09-13T05:10:16.315Z,92.00
2022-09-13T05:12:48.924Z,91.90
2022-09-13T05:15:19.464Z,91.90
2022-09-13T05:17:49.262Z,92.30
2022-09-13T05:20:19.175Z,91.20
2022-09-13T05:22:49.048Z,91.00
2022-09-13T05:25:21.093Z,91.20
2022-09-13T05:27:52.754Z,91.30
2022-09-13T05:30:22.793Z,90.90
2022-09-13T05:32:52.697Z,91.60
2022-09-13T05:35:30.026Z,91.20
2022-09-13T05:38:04.097Z,91.00
2022-09-13T05:40:34.379Z,90.80
2022-09-13T05:43:04.208Z,90.90
2022-09-13T05:45:34.351Z,91.20
2022-09-13T05:48:04.410Z,91.60
2022-09-13T05:50:57.380Z,90.80
2022-09-13T05:53:24.126Z,91.00
2022-09-13T05:55:53.942Z,90.60
2022-09-13T05:58:23.778Z,91.00
2022-09-13T06:01:01.225Z,90.50
2022-09-13T06:03:32.732Z,90.50
2022-09-13T06:06:08.592Z,90.80
2022-09-13T06:08:39.599Z,90.90
2022-09-13T06:11:13.333Z,91.00
2022-09-13T06:13:49.254Z,91.20
2022-09-13T06:16:19.946Z,91.40
2022-09-13T06:18:50.145Z,91.10
2022-09-13T06:21:27.106Z,91.00
2022-09-13T06:23:59.216Z,90.60
2022-09-13T06:26:30.346Z,90.40
2022-09-13T06:29:01.131Z,91.00
2022-09-13T06:31:32.214Z,90.60
2022-09-13T06:34:05.022Z,90.80
2022-09-13T06:36:34.991Z,90.30
2022-09-13T06:39:06.211Z,89.80
2022-09-13T06:41:37.225Z,90.10
2022-09-13T06:44:07.849Z,90.30
2022-09-13T06:46:38.708Z,91.40
2022-09-13T06:49:10.915Z,91.40
2022-09-13T06:51:40.783Z,91.40
2022-09-13T06:54:11.116Z,91.70
2022-09-13T06:56:41.417Z,91.50
2022-09-13T06:59:13.281Z,92.00
2022-09-13T07:01:45.402Z,92.30
2022-09-13T07:04:18.980Z,92.60
2022-09-13T07:06:51.483Z,92.50
2022-09-13T07:09:23.349Z,92.40
2022-09-13T07:11:56.310Z,92.50
2022-09-13T07:14:29.353Z,92.70
2022-09-13T07:16:59.283Z,92.90
2022-09-13T07:19:30.756Z,92.90
2022-09-13T07:22:00.977Z,92.70
2022-09-13T07:24:30.927Z,92.50
2022-09-13T07:27:01.165Z,93.30
2022-09-13T07:29:31.103Z,94.20
2022-09-13T07:32:01.325Z,94.50
2022-09-13T07:34:31.165Z,94.70
2022-09-13T07:37:00.991Z,95.40
2022-09-13T07:39:30.937Z,95.50
2022-09-13T07:42:00.757Z,95.70
2022-09-13T07:44:30.600Z,95.90
2022-09-13T07:47:00.410Z,95.70
2022-09-13T07:49:30.370Z,96.00
2022-09-13T07:52:00.218Z,95.30
2022-09-13T07:54:30.187Z,94.90
2022-09-13T07:57:00.024Z,93.90
2022-09-13T07:59:33.140Z,93.70
2022-09-13T08:02:03.077Z,93.10
2022-09-13T08:04:36.241Z,92.70
2022-09-13T08:07:06.379Z,92.70
2022-09-13T08:09:36.203Z,92.70
2022-09-13T08:12:06.198Z,92.40
2022-09-13T08:14:36.403Z,92.60
2022-09-13T08:17:06.623Z,92.70
2022-09-13T08:19:36.443Z,92.90
2022-09-13T08:22:06.432Z,93.30
2022-09-13T08:24:36.525Z,94.60
2022-09-13T08:27:13.390Z,94.50
2022-09-13T08:29:43.373Z,94.60
2022-09-13T08:32:13.247Z,95.30
2022-09-13T08:34:43.240Z,94.80
2022-09-13T08:37:14.653Z,94.30
2022-09-13T08:39:44.747Z,94.20
2022-09-13T08:42:34.777Z,95.00
2022-09-13T08:45:04.752Z,94.70
2022-09-13T08:47:44.885Z,94.70
2022-09-13T08:50:36.225Z,93.80
2022-09-13T08:53:32.684Z,94.00
2022-09-13T08:56:36.541Z,92.60
2022-09-13T08:59:48.149Z,93.30
2022-09-13T09:02:46.464Z,92.90
2022-09-13T09:05:30.858Z,92.00
2022-09-13T09:08:04.896Z,92.20
2022-09-13T09:10:44.778Z,91.60
2022-09-13T09:13:34.917Z,92.30
2022-09-13T09:16:29.885Z,91.80
2022-09-13T09:19:19.670Z,91.30
2022-09-13T09:21:53.005Z,91.30
2022-09-13T09:24:27.961Z,91.50
2022-09-13T09:27:00.321Z,91.80
2022-09-13T09:29:37.768Z,92.60
2022-09-13T09:32:40.782Z,92.80
2022-09-13T09:35:40.845Z,92.70
2022-09-13T09:38:34.211Z,92.60
2022-09-13T09:41:09.388Z,92.10
2022-09-13T09:43:49.119Z,92.40
2022-09-13T09:46:20.773Z,92.10
2022-09-13T09:48:59.233Z,91.90
2022-09-13T09:51:31.844Z,91.80
2022-09-13T09:54:07.654Z,91.30
2022-09-13T09:56:38.494Z,91.40
2022-09-13T09:59:30.217Z,91.60
2022-09-13T10:02:01.978Z,91.10
2022-09-13T10:04:33.081Z,91.50
2022-09-13T10:07:34.878Z,91.40
2022-09-13T10:10:10.744Z,91.80
2022-09-13T10:12:42.242Z,91.10
2022-09-13T10:15:22.415Z,91.40
2022-09-13T10:18:26.421Z,91.90
2022-09-13T10:21:07.595Z,92.40
2022-09-13T10:23:39.355Z,93.00
2022-09-13T10:26:20.142Z,92.90
2022-09-13T10:29:10.174Z,92.90
2022-09-13T10:31:44.665Z,92.10
2022-09-13T10:34:25.191Z,92.20
2022-09-13T10:37:21.103Z,92.50
2022-09-13T10:40:08.952Z,93.30
2022-09-13T10:42:39.816Z,93.10
2022-09-13T10:45:21.686Z,92.70
2022-09-13T10:47:55.174Z,92.90
2022-09-13T10:50:32.767Z,92.60
2022-09-13T10:53:03.986Z,93.20
2022-09-13T10:55:38.975Z,93.70
2022-09-13T10:58:18.674Z,93.60
2022-09-13T11:01:00.744Z,93.50
2022-09-13T11:03:53.019Z,93.50
2022-09-13T11:06:47.493Z,93.60
2022-09-13T11:09:30.141Z,93.80
2022-09-13T11:12:23.440Z,93.80
2022-09-13T11:15:22.555Z,93.80
2022-09-13T11:18:22.499Z,93.90
2022-09-13T11:21:13.072Z,94.00
2022-09-13T11:24:11.509Z,94.00
2022-09-13T11:27:09.386Z,94.20
2022-09-13T11:29:59.508Z,94.20
2022-09-13T11:33:04.194Z,94.20
2022-09-13T11:35:56.815Z,94.00
2022-09-13T11:38:55.159Z,93.80
2022-09-13T11:41:55.345Z,94.00
2022-09-13T11:44:50.242Z,94.20
2022-09-13T11:47:45.013Z,94.50
2022-09-13T11:50:30.844Z,94.60
2022-09-13T11:53:17.154Z,94.70
2022-09-13T11:55:53.583Z,95.00
2022-09-13T11:58:32.568Z,95.30
2022-09-13T12:01:10.549Z,95.30
2022-09-13T12:03:59.869Z,95.50
2022-09-13T12:06:39.233Z,95.60
2022-09-13T12:09:25.160Z,95.40
2022-09-13T12:12:07.226Z,95.70
2022-09-13T12:15:01.119Z,95.70
2022-09-13T12:17:40.050Z,95.60
2022-09-13T12:20:35.848Z,95.80
2022-09-13T12:23:14.777Z,96.00
2022-09-13T12:26:00.230Z,95.80
2022-09-13T12:28:41.623Z,95.70
2022-09-13T12:31:21.251Z,95.80
2022-09-13T12:33:52.175Z,96.00
2022-09-13T12:36:42.306Z,95.90
2022-09-13T12:39:42.660Z,95.70
2022-09-13T12:42:42.320Z,96.00
2022-09-13T12:45:42.531Z,96.20
2022-09-13T12:48:45.984Z,96.30
2022-09-13T12:51:53.472Z,96.30
2022-09-13T12:54:42.838Z,96.20
2022-09-13T12:57:40.537Z,96.40
2022-09-13T13:00:26.861Z,96.70
2022-09-13T13:03:18.372Z,96.60
2022-09-13T13:05:56.754Z,96.50
2022-09-13T13:08:31.507Z,96.40
2022-09-13T13:11:13.884Z,96.30
2022-09-13T13:13:56.253Z,96.20
2022-09-13T13:16:39.374Z,96.20
2022-09-13T13:19:31.957Z,96.30
2022-09-13T13:22:36.621Z,96.40
2022-09-13T13:25:39.687Z,96.50
2022-09-13T13:28:47.421Z,96.60
2022-09-13T13:31:38.005Z,96.50
2022-09-13T13:34:30.546Z,96.70
2022-09-13T13:37:06.866Z,96.80
2022-09-13T13:39:41.611Z,96.90
2022-09-13T13:42:33.319Z,97.20
2022-09-13T13:45:20.510Z,97.40
2022-09-13T13:48:12.094Z,97.60
2022-09-13T13:51:20.021Z,97.80
2022-09-13T13:53:56.131Z,97.80
2022-09-13T13:56:37.224Z,97.90
2022-09-13T13:59:28.456Z,97.70
2022-09-13T14:02:01.179Z,97.60
2022-09-13T14:05:02.889Z,97.60
2022-09-13T14:08:01.809Z,97.60
2022-09-13T14:11:13.031Z,97.70
2022-09-13T14:14:07.097Z,98.10
2022-09-13T14:17:04.538Z,97.90
2022-09-13T14:19:45.750Z,98.00
2022-09-13T14:22:22.968Z,98.00
2022-09-13T14:24:55.281Z,97.90
2022-09-13T14:27:29.258Z,98.00
2022-09-13T14:30:20.013Z,97.90
2022-09-13T14:32:53.418Z,97.90
2022-09-13T14:35:38.542Z,98.20
2022-09-13T14:38:27.084Z,98.50
2022-09-13T14:41:02.148Z,98.60
2022-09-13T14:43:33.414Z,98.40
2022-09-13T14:46:14.411Z,98.80
2022-09-13T14:48:57.596Z,98.90
2022-09-13T14:51:33.503Z,98.50
2022-09-13T14:54:13.609Z,98.30
2022-09-13T14:56:47.208Z,98.60
2022-09-13T14:59:29.303Z,98.60
2022-09-13T15:02:03.027Z,98.70
2022-09-13T15:04:33.347Z,98.30
2022-09-13T15:07:20.665Z,98.20
2022-09-13T15:09:51.025Z,98.40
2022-09-13T15:12:30.319Z,98.90
2022-09-13T15:15:29.393Z,99.70
2022-09-13T15:18:26.615Z,99.80
2022-09-13T15:21:03.855Z,99.90
2022-09-13T15:23:52.755Z,99.90
2022-09-13T15:26:27.422Z,99.90
2022-09-13T15:29:04.996Z,99.90
2022-09-13T15:31:37.558Z,99.90
2022-09-13T15:34:26.566Z,99.90
2022-09-13T15:37:14.729Z,99.90
2022-09-13T15:39:51.363Z,99.90
2022-09-13T15:42:21.357Z,99.90
2022-09-13T15:44:50.609Z,99.90
2022-09-13T15:47:21.956Z,99.90
2022-09-13T15:49:54.557Z,99.90
2022-09-13T15:52:25.854Z,99.90
2022-09-13T15:54:55.746Z,99.90
2022-09-13T15:57:29.669Z,99.90
2022-09-13T16:00:05.603Z,99.90
2022-09-13T16:02:40.106Z,99.90
2022-09-13T16:05:10.411Z,99.90
2022-09-13T16:07:40.861Z,99.90
2022-09-13T16:10:30.281Z,99.90
2022-09-13T16:13:00.272Z,99.90
2022-09-13T16:15:30.204Z,99.90
2022-09-13T16:18:00.516Z,99.90
2022-09-13T16:20:30.413Z,99.90
2022-09-13T16:22:59.678Z,99.90
2022-09-13T16:25:29.604Z,99.90
2022-09-13T16:28:01.100Z,99.90
2022-09-13T16:30:32.963Z,99.90
2022-09-13T16:33:03.493Z,99.90
2022-09-13T16:35:34.614Z,99.90
2022-09-13T16:38:04.489Z,99.90
2022-09-13T16:40:34.318Z,99.90
2022-09-13T16:43:04.729Z,99.90
2022-09-13T16:45:34.509Z,99.90
2022-09-13T16:48:04.642Z,99.90
2022-09-13T16:50:35.057Z,99.90
2022-09-13T16:53:05.620Z,99.90
2022-09-13T16:55:35.709Z,99.90
2022-09-13T16:58:05.632Z,99.90
2022-09-13T17:00:34.964Z,99.90
2022-09-13T17:03:06.812Z,99.90
2022-09-13T17:05:36.750Z,99.90
2022-09-13T17:08:06.754Z,99.90
2022-09-13T17:10:35.940Z,99.90
2022-09-13T17:13:06.881Z,99.90
2022-09-13T17:15:42.088Z,99.90
2022-09-13T17:18:12.336Z,99.90
2022-09-13T17:20:50.646Z,99.90
2022-09-13T17:23:21.324Z,99.90
2022-09-13T17:25:52.070Z,99.90
2022-09-13T17:28:23.189Z,99.90
2022-09-13T17:30:53.186Z,99.90
2022-09-13T17:33:22.579Z,99.90
2022-09-13T17:36:03.900Z,99.90
2022-09-13T17:38:33.987Z,99.90
2022-09-13T17:41:07.561Z,99.90
2022-09-13T17:43:38.354Z,99.90
2022-09-13T17:46:10.966Z,99.90
2022-09-13T17:48:41.658Z,99.90
2022-09-13T17:51:15.193Z,99.90
2022-09-13T17:53:48.643Z,99.90
2022-09-13T17:56:21.817Z,99.90
2022-09-13T17:58:51.948Z,99.90
2022-09-13T18:01:21.980Z,99.90
2022-09-13T18:03:51.964Z,99.90
2022-09-13T18:06:21.843Z,99.90
2022-09-13T18:08:54.887Z,99.90
2022-09-13T18:11:25.073Z,99.90
2022-09-13T18:13:56.131Z,99.90
2022-09-13T18:16:27.864Z,99.90
2022-09-13T18:18:59.049Z,99.90
2022-09-13T18:21:29.458Z,99.90
2022-09-13T18:24:03.327Z,99.90
2022-09-13T18:26:34.309Z,99.90
2022-09-13T18:29:08.913Z,99.90
2022-09-13T18:31:40.819Z,99.90
2022-09-13T18:34:14.042Z,99.90
2022-09-13T18:36:44.568Z,99.90
2022-09-13T18:39:20.195Z,99.90
2022-09-13T18:41:50.409Z,99.90
2022-09-13T18:44:21.337Z,99.90
2022-09-13T18:46:52.417Z,99.90
2022-09-13T18:49:22.512Z,99.90
2022-09-13T18:51:53.582Z,99.90
2022-09-13T18:54:23.682Z,99.90
2022-09-13T18:56:55.809Z,99.90
2022-09-13T18:59:25.788Z,99.90
2022-09-13T19:01:55.057Z,99.90
2022-09-13T19:04:25.264Z,99.90
2022-09-13T19:06:57.457Z,99.90
2022-09-13T19:09:27.506Z,99.90
2022-09-13T19:11:56.855Z,99.90
2022-09-13T19:14:30.226Z,99.90
2022-09-13T19:17:03.129Z,99.90
2022-09-13T19:19:33.587Z,99.90
2022-09-13T19:22:03.483Z,99.90
2022-09-13T19:24:33.659Z,99.90
2022-09-13T19:27:04.196Z,99.90
2022-09-13T19:29:34.219Z,99.90
2022-09-13T19:32:03.757Z,99.90
2022-09-13T19:34:33.593Z,99.90
2022-09-13T19:37:03.576Z,99.90
2022-09-13T19:39:33.777Z,99.90
2022-09-13T19:42:03.968Z,99.90
2022-09-13T19:44:33.924Z,99.90
2022-09-13T19:47:53.281Z,99.90
2022-09-13T19:49:55.744Z,99.90
2022-09-13T19:52:25.144Z,99.90
2022-09-13T19:54:57.970Z,99.90
2022-09-13T19:57:28.269Z,99.90
2022-09-13T19:59:58.106Z,99.90
2022-09-13T20:02:28.136Z,99.90
2022-09-13T20:04:57.399Z,99.90
2022-09-13T20:07:27.486Z,99.90
2022-09-13T20:09:56.730Z,99.90
2022-09-13T20:12:26.581Z,99.90
2022-09-13T20:14:56.900Z,99.90
2022-09-13T20:17:27.251Z,99.90
2022-09-13T20:19:57.112Z,99.90
2022-09-13T20:22:26.971Z,99.90
2022-09-13T20:24:56.791Z,99.90
2022-09-13T20:27:30.562Z,99.90
2022-09-13T20:30:01.833Z,99.90
2022-09-13T20:32:31.650Z,99.90
2022-09-13T20:35:02.857Z,99.90
2022-09-13T20:37:32.794Z,99.90
2022-09-13T20:40:02.995Z,99.90
2022-09-13T20:42:34.414Z,99.90
2022-09-13T20:45:04.241Z,99.90
2022-09-13T20:47:34.904Z,99.90
2022-09-13T20:50:06.513Z,99.90
2022-09-13T20:52:36.341Z,99.90
2022-09-13T20:55:06.561Z,99.90
2022-09-13T20:57:36.360Z,99.90
2022-09-13T21:00:07.435Z,99.90
2022-09-13T21:02:37.458Z,99.90
2022-09-13T21:05:07.139Z,99.90
2022-09-13T21:07:48.277Z,99.90
2022-09-13T21:10:18.690Z,99.90
2022-09-13T21:12:53.740Z,99.90
2022-09-13T21:15:24.443Z,99.90
2022-09-13T21:17:54.287Z,99.90
2022-09-13T21:20:24.159Z,99.90
2022-09-13T21:22:55.611Z,99.90
2022-09-13T21:25:25.510Z,99.90
2022-09-13T21:27:55.297Z,99.90
2022-09-13T21:30:25.599Z,99.90
2022-09-13T21:32:55.486Z,99.90
2022-09-13T21:35:25.271Z,99.90
2022-09-13T21:37:56.137Z,99.90
2022-09-13T21:40:26.103Z,99.90
2022-09-13T21:42:55.359Z,99.90
2022-09-13T21:45:25.601Z,99.90
2022-09-13T21:47:55.499Z,99.90
2022-09-13T21:50:25.262Z,99.90
2022-09-13T21:52:55.122Z,99.90
2022-09-13T21:55:24.994Z,99.90
2022-09-13T21:57:55.262Z,99.90
2022-09-13T22:00:25.204Z,99.90
2022-09-13T22:02:55.007Z,99.90
2022-09-13T22:05:24.781Z,99.90
2022-09-13T22:07:54.774Z,99.90
2022-09-13T22:10:24.610Z,99.90
2022-09-13T22:12:54.536Z,99.90
2022-09-13T22:15:24.447Z,99.90
2022-09-13T22:17:54.835Z,99.90
2022-09-13T22:20:24.686Z,99.90
2022-09-13T22:22:54.634Z,99.90
2022-09-13T22:25:24.577Z,99.90
2022-09-13T22:27:54.620Z,99.90
2022-09-13T22:30:24.464Z,99.90
2022-09-13T22:32:54.255Z,99.90
2022-09-13T22:35:24.763Z,99.90
2022-09-13T22:37:54.582Z,99.90
2022-09-13T22:40:24.456Z,99.90
2022-09-13T22:42:54.435Z,99.90
2022-09-13T22:45:24.337Z,99.90
2022-09-13T22:47:54.431Z,99.90
2022-09-13T22:50:23.758Z,99.90
2022-09-13T22:52:53.565Z,99.90
2022-09-13T22:55:24.872Z,99.90
2022-09-13T22:57:55.645Z,99.90
2022-09-13T23:00:25.465Z,99.90
2022-09-13T23:02:56.156Z,99.90
2022-09-13T23:05:26.068Z,99.90
2022-09-13T23:07:55.922Z,99.90
2022-09-13T23:10:26.671Z,99.90
2022-09-13T23:12:56.548Z,99.90
2022-09-13T23:15:27.277Z,99.90
2022-09-13T23:17:57.588Z,99.90
2022-09-13T23:20:27.457Z,99.90
2022-09-13T23:22:57.315Z,99.90
2022-09-13T23:25:27.266Z,99.90
2022-09-13T23:27:57.317Z,99.90
2022-09-13T23:30:26.582Z,99.90
2022-09-13T23:32:56.473Z,99.90
2022-09-13T23:35:26.441Z,99.90
2022-09-13T23:37:56.459Z,99.90
2022-09-13T23:40:26.342Z,99.90
2022-09-13T23:42:56.183Z,99.90
2022-09-13T23:45:26.252Z,99.90
2022-09-13T23:47:55.486Z,99.90
2022-09-13T23:50:25.425Z,99.90
2022-09-13T23:52:55.349Z,99.90
2022-09-13T23:55:25.401Z,99.90
2022-09-13T23:57:54.588Z,99.90
